createdAt,value
2023-04-13T00:01:32.840Z,85.86
2023-04-13T00:04:03.858Z,86.04
2023-04-13T00:06:34.358Z,86.15
2023-04-13T00:09:03.643Z,86.06
2023-04-13T00:11:32.491Z,85.79
2023-04-13T00:14:01.476Z,85.44
2023-04-13T00:16:31.706Z,85.69
2023-04-13T00:19:02.092Z,85.83
2023-04-13T00:21:30.945Z,85.91
2023-04-13T00:24:01.643Z,85.94
2023-04-13T00:26:30.549Z,86.19
2023-04-13T00:28:59.650Z,85.64
2023-04-13T00:31:29.591Z,86.00
2023-04-13T00:33:58.919Z,86.17
2023-04-13T00:36:30.280Z,85.56
2023-04-13T00:39:00.780Z,85.74
2023-04-13T00:41:29.583Z,85.69
2023-04-13T00:43:59.254Z,85.89
2023-04-13T00:46:30.559Z,86.13
2023-04-13T00:49:02.123Z,85.88
2023-04-13T00:51:33.148Z,85.92
2023-04-13T00:54:03.580Z,85.75
2023-04-13T00:56:33.852Z,85.63
2023-04-13T00:59:03.586Z,85.57
2023-04-13T01:01:32.553Z,85.82
2023-04-13T01:04:01.907Z,85.21
2023-04-13T01:06:42.193Z,84.59
2023-04-13T01:09:25.979Z,84.97
2023-04-13T01:12:04.258Z,84.92
2023-04-13T01:14:43.071Z,85.04
2023-04-13T01:17:25.685Z,85.45
2023-04-13T01:20:01.541Z,85.69
2023-04-13T01:22:36.672Z,86.30
2023-04-13T01:25:36.827Z,86.47
2023-04-13T01:28:10.453Z,86.63
2023-04-13T01:30:42.586Z,86.30
2023-04-13T01:33:14.050Z,85.83
2023-04-13T01:35:44.680Z,85.90
2023-04-13T01:38:17.474Z,85.13
2023-04-13T01:40:46.500Z,84.98
2023-04-13T01:43:18.310Z,84.83
2023-04-13T01:46:04.979Z,84.97
2023-04-13T01:48:46.636Z,84.20
2023-04-13T01:51:37.399Z,84.31
2023-04-13T01:54:14.806Z,84.11
2023-04-13T01:56:48.268Z,84.49
2023-04-13T01:59:19.380Z,84.72
2023-04-13T02:01:48.839Z,84.83
2023-04-13T02:04:17.690Z,84.61
2023-04-13T02:06:48.318Z,84.34
2023-04-13T02:09:17.217Z,84.07
2023-04-13T02:11:46.287Z,84.08
2023-04-13T02:14:15.699Z,84.09
2023-04-13T02:16:47.461Z,83.91
2023-04-13T02:19:16.670Z,84.48
2023-04-13T02:21:46.183Z,85.18
2023-04-13T02:24:15.469Z,85.36
2023-04-13T02:26:44.718Z,84.82
2023-04-13T02:29:13.498Z,84.36
2023-04-13T02:31:45.236Z,84.43
2023-04-13T02:34:15.461Z,84.50
2023-04-13T02:36:45.334Z,84.07
2023-04-13T02:39:14.355Z,83.96
2023-04-13T02:41:43.641Z,84.54
2023-04-13T02:44:18.367Z,84.28
2023-04-13T02:46:55.394Z,85.04
2023-04-13T02:49:25.674Z,85.34
2023-04-13T02:52:17.632Z,85.80
2023-04-13T02:55:00.658Z,85.13
2023-04-13T02:57:35.490Z,85.20
2023-04-13T03:00:10.746Z,85.38
2023-04-13T03:02:48.506Z,85.50
2023-04-13T03:05:21.438Z,86.17
2023-04-13T03:07:50.542Z,86.45
2023-04-13T03:10:20.152Z,86.96
2023-04-13T03:12:50.511Z,86.87
2023-04-13T03:15:19.703Z,86.80
2023-04-13T03:17:49.155Z,86.73
2023-04-13T03:20:24.440Z,86.41
2023-04-13T03:22:58.801Z,86.63
2023-04-13T03:25:31.863Z,86.68
2023-04-13T03:28:02.444Z,86.43
2023-04-13T03:30:37.073Z,87.08
2023-04-13T03:33:06.186Z,87.13
2023-04-13T03:35:39.597Z,86.95
2023-04-13T03:38:15.678Z,87.00
2023-04-13T03:40:46.837Z,86.19
2023-04-13T03:43:17.275Z,86.43
2023-04-13T03:45:52.208Z,86.35
2023-04-13T03:48:21.837Z,86.43
2023-04-13T03:50:52.230Z,86.26
2023-04-13T03:53:28.188Z,86.55
2023-04-13T03:55:58.515Z,86.58
2023-04-13T03:58:27.809Z,86.73
2023-04-13T04:00:56.902Z,87.11
2023-04-13T04:03:38.779Z,87.36
2023-04-13T04:06:12.162Z,88.24
2023-04-13T04:08:46.868Z,88.84
2023-04-13T04:11:28.674Z,88.80
2023-04-13T04:13:59.275Z,89.05
2023-04-13T04:16:28.776Z,89.30
2023-04-13T04:19:05.955Z,89.38
2023-04-13T04:21:36.436Z,89.43
2023-04-13T04:24:12.476Z,89.35
2023-04-13T04:26:50.388Z,89.49
2023-04-13T04:29:22.317Z,89.91
2023-04-13T04:31:56.215Z,89.53
2023-04-13T04:34:26.249Z,89.42
2023-04-13T04:37:00.211Z,89.00
2023-04-13T04:39:35.438Z,89.05
2023-04-13T04:42:12.834Z,89.52
2023-04-13T04:44:44.632Z,89.28
2023-04-13T04:47:17.016Z,89.22
2023-04-13T04:50:03.510Z,89.51
2023-04-13T04:52:38.764Z,89.84
2023-04-13T04:55:09.175Z,90.20
2023-04-13T04:57:41.093Z,90.16
2023-04-13T05:00:15.616Z,89.43
2023-04-13T05:02:50.926Z,89.24
2023-04-13T05:05:20.955Z,89.08
2023-04-13T05:07:52.478Z,89.64
2023-04-13T05:10:24.579Z,89.23
2023-04-13T05:12:57.092Z,89.04
2023-04-13T05:15:28.389Z,88.78
2023-04-13T05:17:58.161Z,88.83
2023-04-13T05:20:30.406Z,88.98
2023-04-13T05:23:05.910Z,89.07
2023-04-13T05:25:40.617Z,89.13
2023-04-13T05:28:17.851Z,89.02
2023-04-13T05:30:48.034Z,89.12
2023-04-13T05:33:18.090Z,88.82
2023-04-13T05:35:50.794Z,88.85
2023-04-13T05:38:20.937Z,88.40
2023-04-13T05:40:50.004Z,87.67
2023-04-13T05:43:21.868Z,87.41
2023-04-13T05:45:53.458Z,86.58
2023-04-13T05:48:23.749Z,86.82
2023-04-13T05:50:59.214Z,86.37
2023-04-13T05:53:33.315Z,86.29
2023-04-13T05:56:03.594Z,85.92
2023-04-13T05:58:34.665Z,84.83
2023-04-13T06:01:33.671Z,83.16
2023-04-13T06:04:03.686Z,81.95
2023-04-13T06:06:36.011Z,80.92
2023-04-13T06:09:06.655Z,79.39
2023-04-13T06:11:35.697Z,77.99
2023-04-13T06:14:04.473Z,77.37
2023-04-13T06:16:33.707Z,76.11
2023-04-13T06:19:03.167Z,74.43
2023-04-13T06:21:35.387Z,73.22
2023-04-13T06:24:05.871Z,73.80
2023-04-13T06:26:38.474Z,73.37
2023-04-13T06:29:07.523Z,72.80
2023-04-13T06:31:45.126Z,71.58
2023-04-13T06:34:17.990Z,69.17
2023-04-13T06:36:48.059Z,68.80
2023-04-13T06:39:20.626Z,67.51
2023-04-13T06:41:57.831Z,65.72
2023-04-13T06:44:45.197Z,63.90
2023-04-13T06:47:14.251Z,63.58
2023-04-13T06:49:46.005Z,64.36
2023-04-13T06:52:15.300Z,62.94
2023-04-13T06:54:45.593Z,63.34
2023-04-13T06:57:27.666Z,62.75
2023-04-13T06:59:56.659Z,61.98
2023-04-13T07:02:27.061Z,61.34
2023-04-13T07:04:57.428Z,60.46
2023-04-13T07:07:26.745Z,59.01
2023-04-13T07:10:00.494Z,55.55
2023-04-13T07:12:30.341Z,54.78
2023-04-13T07:14:59.277Z,55.39
2023-04-13T07:17:30.645Z,54.39
2023-04-13T07:19:59.556Z,53.29
2023-04-13T07:22:33.648Z,54.24
2023-04-13T07:25:04.352Z,53.96
2023-04-13T07:27:34.607Z,54.23
2023-04-13T07:30:03.585Z,52.45
2023-04-13T07:32:39.146Z,52.90
2023-04-13T07:35:08.733Z,52.13
2023-04-13T07:37:39.853Z,49.66
2023-04-13T07:40:13.200Z,51.16
2023-04-13T07:42:47.318Z,51.91
2023-04-13T07:45:18.022Z,50.52
2023-04-13T07:47:47.982Z,48.50
2023-04-13T07:50:18.026Z,49.57
2023-04-13T07:52:48.110Z,48.62
2023-04-13T07:55:20.780Z,49.07
2023-04-13T07:57:51.351Z,49.41
2023-04-13T08:00:23.064Z,48.94
2023-04-13T08:02:58.342Z,48.04
2023-04-13T08:05:29.348Z,47.87
2023-04-13T08:07:59.181Z,47.88
2023-04-13T08:10:30.150Z,47.23
2023-04-13T08:13:01.412Z,47.91
2023-04-13T08:15:30.259Z,48.70
2023-04-13T08:17:59.860Z,47.56
2023-04-13T08:20:30.995Z,47.89
2023-04-13T08:23:01.164Z,47.54
2023-04-13T08:25:31.889Z,48.05
2023-04-13T08:28:02.132Z,47.77
2023-04-13T08:30:34.196Z,46.88
2023-04-13T08:33:05.304Z,47.35
2023-04-13T08:35:34.266Z,47.67
2023-04-13T08:38:04.357Z,47.91
2023-04-13T08:40:39.538Z,47.00
2023-04-13T08:43:13.253Z,47.80
2023-04-13T08:45:43.588Z,45.63
2023-04-13T08:48:15.216Z,45.86
2023-04-13T09:26:03.321Z,40.43
2023-04-13T09:28:33.871Z,38.48
2023-04-13T09:31:06.544Z,37.78
2023-04-13T09:33:46.229Z,37.98
2023-04-13T09:36:17.191Z,35.43
2023-04-13T09:38:46.681Z,35.20
2023-04-13T09:41:15.841Z,35.04
2023-04-13T09:43:46.284Z,35.79
2023-04-13T09:46:16.237Z,35.39
2023-04-13T09:48:45.753Z,34.30
2023-04-13T09:51:14.505Z,32.82
2023-04-13T09:53:46.467Z,33.99
2023-04-13T09:56:16.098Z,34.35
2023-04-13T09:58:48.828Z,34.64
2023-04-13T10:01:18.973Z,33.72
2023-04-13T10:03:48.372Z,33.76
2023-04-13T10:06:17.761Z,33.81
2023-04-13T10:08:47.028Z,32.76
2023-04-13T10:11:17.534Z,33.15
2023-04-13T10:13:56.108Z,32.74
2023-04-13T10:17:05.303Z,30.75
2023-04-13T10:19:41.270Z,29.75
2023-04-13T10:22:12.374Z,27.53
2023-04-13T10:24:41.863Z,26.80
2023-04-13T10:27:17.887Z,27.06
2023-04-13T10:29:50.009Z,26.99
2023-04-13T10:32:23.945Z,26.41
2023-04-13T10:34:53.522Z,26.58
2023-04-13T10:37:27.412Z,26.49
2023-04-13T10:40:06.765Z,26.80
2023-04-13T10:42:52.352Z,26.95
2023-04-13T10:45:26.853Z,27.54
2023-04-13T10:47:58.682Z,27.81
2023-04-13T10:50:28.406Z,28.88
2023-04-13T10:53:04.868Z,27.93
2023-04-13T10:55:35.447Z,28.17
2023-04-13T10:58:16.304Z,29.02
2023-04-13T11:00:48.403Z,29.55
2023-04-13T11:03:19.228Z,29.61
2023-04-13T11:05:49.859Z,27.91
2023-04-13T11:08:20.683Z,27.58
2023-04-13T11:10:54.595Z,27.60
2023-04-13T11:13:26.764Z,27.70
2023-04-13T11:16:04.506Z,27.19
2023-04-13T11:18:33.663Z,26.27
2023-04-13T11:21:06.046Z,25.85
2023-04-13T11:23:37.376Z,24.66
2023-04-13T11:26:06.859Z,24.47
2023-04-13T11:28:40.955Z,24.95
2023-04-13T11:31:12.115Z,24.38
2023-04-13T11:33:41.338Z,24.58
2023-04-13T11:36:11.888Z,23.22
2023-04-13T11:38:42.269Z,24.02
2023-04-13T11:41:16.947Z,24.12
2023-04-13T11:43:48.453Z,23.50
2023-04-13T11:46:25.772Z,23.36
2023-04-13T11:48:56.065Z,23.99
2023-04-13T11:51:26.675Z,23.51
2023-04-13T11:53:56.272Z,22.69
2023-04-13T11:56:25.918Z,23.70
2023-04-13T11:58:55.350Z,23.38
2023-04-13T12:01:32.351Z,23.98
2023-04-13T12:06:45.932Z,25.25
2023-04-13T12:09:18.045Z,28.14
2023-04-13T12:12:08.017Z,29.25
2023-04-13T12:19:51.806Z,30.41
2023-04-13T12:22:21.704Z,30.19
2023-04-13T12:24:51.176Z,28.58
2023-04-13T12:27:20.263Z,29.19
2023-04-13T12:29:49.248Z,29.25
2023-04-13T12:32:19.612Z,29.18
2023-04-13T12:34:49.020Z,30.00
2023-04-13T12:37:18.132Z,29.33
2023-04-13T12:39:46.926Z,29.94
2023-04-13T12:42:16.172Z,29.95
2023-04-13T12:44:45.199Z,29.54
2023-04-13T12:47:14.208Z,30.08
2023-04-13T12:49:44.520Z,30.37
2023-04-13T12:52:13.617Z,29.34
2023-04-13T12:54:42.323Z,29.36
2023-04-13T12:57:11.334Z,30.35
2023-04-13T12:59:40.063Z,30.54
2023-04-13T13:02:09.125Z,30.71
2023-04-13T13:04:37.934Z,31.07
2023-04-13T13:07:08.722Z,32.12
2023-04-13T13:09:37.414Z,32.40
2023-04-13T13:12:07.015Z,32.77
2023-04-13T13:14:36.013Z,30.61
2023-04-13T13:17:05.119Z,31.27
2023-04-13T13:19:33.965Z,31.53
2023-04-13T13:22:03.280Z,31.17
2023-04-13T13:24:33.554Z,30.98
2023-04-13T13:27:37.433Z,30.99
2023-04-13T13:29:51.484Z,30.67
2023-04-13T13:32:20.868Z,30.45
2023-04-13T13:34:49.698Z,29.87
2023-04-13T13:37:18.745Z,30.70
2023-04-13T13:39:48.900Z,29.56
2023-04-13T13:42:17.926Z,29.88
2023-04-13T13:44:46.711Z,29.74
2023-04-13T13:47:15.980Z,30.54
2023-04-13T13:49:50.418Z,30.36
2023-04-13T13:52:40.238Z,29.99
2023-04-13T13:55:19.529Z,29.79
2023-04-13T13:57:49.001Z,29.54
2023-04-13T14:00:19.754Z,30.37
2023-04-13T14:02:49.457Z,29.47
2023-04-13T14:05:18.272Z,29.32
2023-04-13T14:07:47.728Z,30.44
2023-04-13T14:10:18.019Z,30.30
2023-04-13T14:12:50.466Z,29.61
2023-04-13T14:15:19.885Z,29.41
2023-04-13T14:18:02.468Z,28.64
2023-04-13T14:20:40.020Z,30.23
2023-04-13T14:23:10.101Z,29.86
2023-04-13T14:25:41.267Z,30.17
2023-04-13T14:28:11.598Z,30.46
2023-04-13T14:30:41.169Z,29.80
2023-04-13T14:33:10.334Z,29.55
2023-04-13T14:35:39.807Z,28.83
2023-04-13T14:38:09.700Z,29.44
2023-04-13T14:40:40.019Z,29.99
2023-04-13T14:43:09.112Z,29.18
2023-04-13T14:45:37.906Z,29.53
2023-04-13T14:48:07.553Z,29.25
2023-04-13T14:50:39.313Z,28.00
2023-04-13T14:53:09.470Z,28.34
2023-04-13T14:55:38.238Z,28.27
2023-04-13T14:58:08.683Z,28.63
2023-04-13T15:00:40.265Z,28.11
2023-04-13T15:03:11.394Z,28.63
2023-04-13T15:05:41.263Z,28.64
2023-04-13T15:08:11.816Z,29.24
2023-04-13T15:10:42.422Z,29.02
2023-04-13T15:13:13.127Z,28.93
2023-04-13T15:15:42.054Z,28.10
2023-04-13T15:18:11.324Z,30.03
2023-04-13T15:20:40.282Z,29.50
2023-04-13T15:23:09.417Z,28.17
2023-04-13T15:25:39.161Z,29.12
2023-04-13T15:28:08.359Z,29.62
2023-04-13T15:30:38.630Z,29.02
2023-04-13T15:33:07.984Z,28.56
2023-04-13T15:35:37.252Z,28.86
2023-04-13T15:38:06.471Z,27.70
2023-04-13T15:40:36.370Z,28.36
2023-04-13T15:43:06.547Z,28.77
2023-04-13T15:45:35.765Z,28.63
2023-04-13T15:48:07.216Z,29.06
2023-04-13T15:50:36.290Z,29.76
2023-04-13T15:53:05.843Z,28.53
2023-04-13T15:55:35.727Z,28.82
2023-04-13T15:58:04.834Z,27.82
2023-04-13T16:00:33.620Z,28.68
2023-04-13T16:03:02.909Z,29.06
2023-04-13T16:05:33.430Z,29.08
2023-04-13T16:08:02.834Z,30.11
2023-04-13T16:10:31.735Z,29.66
2023-04-13T16:13:02.821Z,30.29
2023-04-13T16:15:31.587Z,30.38
2023-04-13T16:18:00.652Z,30.72
2023-04-13T16:20:29.707Z,30.88
2023-04-13T16:23:03.761Z,32.93
2023-04-13T16:25:33.233Z,34.46
2023-04-13T16:28:03.024Z,34.58
2023-04-13T16:30:32.280Z,35.45
2023-04-13T16:33:02.285Z,34.59
2023-04-13T16:35:31.817Z,34.75
2023-04-13T16:38:02.236Z,35.52
2023-04-13T16:40:31.458Z,35.42
2023-04-13T16:43:01.744Z,36.83
2023-04-13T16:45:30.454Z,36.19
2023-04-13T16:47:59.564Z,37.30
2023-04-13T16:50:31.445Z,37.00
2023-04-13T16:53:02.637Z,38.45
2023-04-13T16:55:31.492Z,38.79
2023-04-13T16:58:00.474Z,39.84
2023-04-13T17:00:29.396Z,38.53
2023-04-13T17:02:58.463Z,38.72
2023-04-13T17:05:28.523Z,39.45
2023-04-13T17:07:57.539Z,39.29
2023-04-13T17:10:27.783Z,40.76
2023-04-13T17:12:57.450Z,41.59
2023-04-13T17:15:26.368Z,42.53
2023-04-13T17:17:55.563Z,42.28
2023-04-13T17:20:24.623Z,42.17
2023-04-13T17:22:54.198Z,41.58
2023-04-13T17:25:22.881Z,41.93
2023-04-13T17:27:53.460Z,42.68
2023-04-13T17:30:22.674Z,42.80
2023-04-13T17:32:51.949Z,43.08
2023-04-13T17:35:21.434Z,43.44
2023-04-13T17:37:50.790Z,43.34
2023-04-13T17:40:20.584Z,43.70
2023-04-13T17:42:50.229Z,44.20
2023-04-13T17:45:20.387Z,43.72
2023-04-13T17:47:49.526Z,44.25
2023-04-13T17:50:18.490Z,44.26
2023-04-13T17:52:47.760Z,44.85
2023-04-13T17:55:16.624Z,44.95
2023-04-13T17:57:45.807Z,45.78
2023-04-13T18:00:16.377Z,45.82
2023-04-13T18:02:50.385Z,45.87
2023-04-13T18:05:19.435Z,46.55
2023-04-13T18:07:48.485Z,47.22
2023-04-13T18:10:17.261Z,47.27
2023-04-13T18:12:46.239Z,47.21
2023-04-13T18:15:14.987Z,47.74
2023-04-13T18:17:44.015Z,47.85
2023-04-13T18:20:14.460Z,49.18
2023-04-13T18:22:43.621Z,48.82
2023-04-13T18:25:12.296Z,48.55
2023-04-13T18:27:41.787Z,49.01
2023-04-13T18:30:13.042Z,49.78
2023-04-13T18:32:42.074Z,50.11
2023-04-13T18:35:13.368Z,50.10
2023-04-13T18:37:42.339Z,50.55
2023-04-13T18:40:12.433Z,51.70
2023-04-13T18:42:42.058Z,51.53
2023-04-13T18:45:12.133Z,52.09
2023-04-13T18:47:41.183Z,52.59
2023-04-13T18:50:11.879Z,52.77
2023-04-13T18:52:42.146Z,53.22
2023-04-13T18:55:11.244Z,53.82
2023-04-13T18:57:41.710Z,54.13
2023-04-13T19:00:11.656Z,54.86
2023-04-13T19:02:42.213Z,55.37
2023-04-13T19:05:13.426Z,55.99
2023-04-13T19:07:45.751Z,56.56
2023-04-13T19:10:14.383Z,57.00
2023-04-13T19:12:43.380Z,57.25
2023-04-13T19:15:12.852Z,58.01
2023-04-13T19:17:42.053Z,58.69
2023-04-13T19:20:13.404Z,59.18
2023-04-13T19:22:44.045Z,59.46
2023-04-13T19:25:15.359Z,59.69
2023-04-13T19:27:46.221Z,59.87
2023-04-13T19:30:16.826Z,59.85
2023-04-13T19:32:48.971Z,60.12
2023-04-13T19:35:18.620Z,60.40
2023-04-13T19:37:49.289Z,60.56
2023-04-13T19:40:17.961Z,60.79
2023-04-13T19:42:48.369Z,60.81
2023-04-13T19:45:17.326Z,61.05
2023-04-13T19:47:47.006Z,61.12
2023-04-13T19:50:16.709Z,61.31
2023-04-13T19:52:47.470Z,61.62
2023-04-13T19:55:17.634Z,61.65
2023-04-13T19:57:46.552Z,62.17
2023-04-13T20:00:20.610Z,62.30
2023-04-13T20:02:52.508Z,62.55
2023-04-13T20:05:22.477Z,62.79
2023-04-13T20:07:51.405Z,63.16
2023-04-13T20:10:21.472Z,63.23
2023-04-13T20:12:50.733Z,63.34
2023-04-13T20:15:19.489Z,63.72
2023-04-13T20:17:51.314Z,63.96
2023-04-13T20:20:21.861Z,64.36
2023-04-13T20:22:52.841Z,64.56
2023-04-13T20:25:22.931Z,64.65
2023-04-13T20:27:51.868Z,64.88
2023-04-13T20:30:20.759Z,65.28
2023-04-13T20:32:49.850Z,65.58
2023-04-13T20:35:18.872Z,65.87
2023-04-13T20:37:48.135Z,66.29
2023-04-13T20:40:17.834Z,66.81
2023-04-13T20:42:48.450Z,66.79
2023-04-13T20:45:18.380Z,67.03
2023-04-13T20:47:50.503Z,67.29
2023-04-13T20:50:23.860Z,67.56
2023-04-13T20:52:56.690Z,67.85
2023-04-13T20:55:26.224Z,68.40
2023-04-13T20:57:56.589Z,68.77
2023-04-13T21:00:27.972Z,68.99
2023-04-13T21:02:57.972Z,69.04
2023-04-13T21:05:27.018Z,69.42
2023-04-13T21:07:57.185Z,69.53
2023-04-13T21:10:26.158Z,69.74
2023-04-13T21:12:56.441Z,70.13
2023-04-13T21:15:25.120Z,70.62
2023-04-13T21:17:54.067Z,70.58
2023-04-13T21:20:23.936Z,70.76
2023-04-13T21:22:52.869Z,70.93
2023-04-13T21:25:21.681Z,71.06
2023-04-13T21:27:50.661Z,71.24
2023-04-13T21:30:20.994Z,71.51
2023-04-13T21:32:50.577Z,72.06
2023-04-13T21:35:19.571Z,72.69
2023-04-13T21:37:48.530Z,72.80
2023-04-13T21:40:18.376Z,73.47
2023-04-13T21:42:47.427Z,73.78
2023-04-13T21:45:16.331Z,74.22
2023-04-13T21:47:47.236Z,74.53
2023-04-13T21:50:16.069Z,74.90
2023-04-13T21:52:45.192Z,75.34
2023-04-13T21:55:18.154Z,75.47
2023-04-13T21:57:47.256Z,75.81
2023-04-13T22:00:18.041Z,76.43
2023-04-13T22:02:49.269Z,76.67
2023-04-13T22:05:18.171Z,77.08
2023-04-13T22:07:47.329Z,77.30
2023-04-13T22:10:16.014Z,77.66
2023-04-13T22:12:45.026Z,78.22
2023-04-13T22:15:13.688Z,78.50
2023-04-13T22:17:42.669Z,78.91
2023-04-13T22:20:13.512Z,79.37
2023-04-13T22:22:42.435Z,79.93
2023-04-13T22:25:11.332Z,80.50
2023-04-13T22:27:40.375Z,80.78
2023-04-13T22:30:10.561Z,81.32
2023-04-13T22:32:39.575Z,81.32
2023-04-13T22:35:09.299Z,81.71
2023-04-13T22:37:39.636Z,81.53
2023-04-13T22:40:09.819Z,81.68
2023-04-13T22:42:38.781Z,81.91
2023-04-13T22:45:09.068Z,82.28
2023-04-13T22:47:38.158Z,82.25
2023-04-13T22:50:08.558Z,82.29
2023-04-13T22:52:38.889Z,82.26
2023-04-13T22:55:08.164Z,82.37
2023-04-13T22:57:37.242Z,82.16
2023-04-13T23:00:06.978Z,82.45
2023-04-13T23:02:36.136Z,82.41
2023-04-13T23:05:05.607Z,82.24
2023-04-13T23:07:34.902Z,82.20
2023-04-13T23:10:05.737Z,82.46
2023-04-13T23:12:34.652Z,82.68
2023-04-13T23:15:03.817Z,82.46
2023-04-13T23:17:32.751Z,82.79
2023-04-13T23:20:01.556Z,82.97
2023-04-13T23:22:31.358Z,82.88
2023-04-13T23:25:00.368Z,82.96
2023-04-13T23:27:30.723Z,83.56
2023-04-13T23:29:59.401Z,83.75
2023-04-13T23:32:28.486Z,83.89
2023-04-13T23:34:57.333Z,83.97
2023-04-13T23:37:26.398Z,84.36
2023-04-13T23:39:55.457Z,84.54
2023-04-13T23:42:24.551Z,84.56
2023-04-13T23:44:54.628Z,84.30
2023-04-13T23:47:23.779Z,84.33
2023-04-13T23:49:54.180Z,84.21
2023-04-13T23:52:24.318Z,84.52
2023-04-13T23:54:53.027Z,84.58
2023-04-13T23:57:22.536Z,84.30
2023-04-13T23:59:58.172Z,84.42
